createdAt,value
2023-01-20T00:01:12.835Z,1.10
2023-01-20T00:03:40.840Z,1.10
2023-01-20T00:06:08.591Z,1.00
2023-01-20T00:08:35.545Z,1.10
2023-01-20T00:11:07.025Z,1.20
2023-01-20T00:13:35.597Z,1.20
2023-01-20T00:16:07.199Z,1.10
2023-01-20T00:18:35.056Z,1.10
2023-01-20T00:21:07.002Z,1.10
2023-01-20T00:23:33.708Z,1.30
2023-01-20T00:26:04.442Z,1.20
2023-01-20T00:28:31.219Z,1.10
2023-01-20T00:30:58.009Z,1.20
2023-01-20T00:33:24.765Z,1.20
2023-01-20T00:35:51.469Z,1.10
2023-01-20T00:38:18.199Z,1.10
2023-01-20T00:40:44.912Z,1.30
2023-01-20T00:43:13.185Z,1.30
2023-01-20T00:45:41.141Z,1.20
2023-01-20T00:48:07.806Z,1.10
2023-01-20T00:50:34.623Z,1.00
2023-01-20T00:53:01.299Z,1.00
2023-01-20T00:55:27.946Z,1.00
2023-01-20T00:57:54.595Z,1.00
2023-01-20T01:00:21.402Z,1.00
2023-01-20T01:02:48.019Z,1.10
2023-01-20T01:05:15.112Z,1.10
2023-01-20T01:07:42.296Z,1.10
2023-01-20T01:10:10.067Z,1.10
2023-01-20T01:12:37.003Z,1.10
2023-01-20T01:15:04.183Z,1.00
2023-01-20T01:17:30.840Z,0.90
2023-01-20T01:19:57.552Z,0.80
2023-01-20T01:22:24.224Z,0.80
2023-01-20T01:24:50.876Z,0.80
2023-01-20T01:27:17.522Z,0.90
2023-01-20T01:29:44.179Z,0.80
2023-01-20T01:32:11.523Z,0.90
2023-01-20T01:34:38.192Z,0.80
2023-01-20T01:37:04.949Z,0.80
2023-01-20T01:39:31.625Z,0.70
2023-01-20T01:41:58.295Z,0.80
2023-01-20T01:44:27.895Z,0.80
2023-01-20T01:46:54.677Z,0.80
2023-01-20T01:49:24.926Z,0.80
2023-01-20T01:51:59.637Z,0.70
2023-01-20T01:54:34.122Z,0.70
2023-01-20T01:57:01.241Z,0.80
2023-01-20T01:59:28.184Z,0.80
2023-01-20T02:01:55.672Z,0.80
2023-01-20T02:04:25.132Z,0.80
2023-01-20T02:07:09.098Z,0.80
2023-01-20T02:09:36.935Z,0.70
2023-01-20T02:12:10.524Z,0.70
2023-01-20T02:14:47.188Z,0.70
2023-01-20T02:17:31.255Z,0.60
2023-01-20T02:20:19.749Z,0.60
2023-01-20T02:23:02.907Z,0.60
2023-01-20T02:25:38.070Z,0.50
2023-01-20T02:28:43.902Z,0.50
2023-01-20T02:31:30.983Z,0.60
2023-01-20T02:34:16.489Z,0.60
2023-01-20T02:36:45.538Z,0.70
2023-01-20T02:39:27.967Z,0.80
2023-01-20T02:42:01.907Z,0.90
2023-01-20T02:45:06.819Z,0.90
2023-01-20T02:47:43.009Z,0.90
2023-01-20T02:50:40.783Z,1.10
2023-01-20T02:53:09.044Z,1.20
2023-01-20T02:55:46.176Z,1.20
2023-01-20T02:58:23.859Z,1.10
2023-01-20T03:01:03.633Z,1.00
2023-01-20T03:03:36.758Z,0.90
2023-01-20T03:06:08.220Z,0.70
2023-01-20T03:08:36.568Z,0.70
2023-01-20T03:11:06.651Z,0.60
2023-01-20T03:13:58.059Z,0.60
2023-01-20T03:16:26.584Z,0.80
2023-01-20T03:18:55.005Z,0.90
2023-01-20T03:21:21.867Z,0.90
2023-01-20T03:23:51.589Z,0.70
2023-01-20T03:26:19.943Z,0.70
2023-01-20T03:28:48.508Z,0.60
2023-01-20T03:31:25.525Z,0.60
2023-01-20T03:33:55.331Z,0.60
2023-01-20T03:36:25.536Z,0.60
2023-01-20T03:38:54.605Z,0.50
2023-01-20T03:41:59.416Z,0.40
2023-01-20T03:44:44.740Z,0.30
2023-01-20T03:47:27.549Z,0.30
2023-01-20T03:50:06.608Z,0.30
2023-01-20T03:52:50.967Z,0.20
2023-01-20T03:55:43.121Z,0.20
2023-01-20T03:58:13.888Z,0.20
2023-01-20T04:00:44.433Z,0.20
2023-01-20T04:03:29.624Z,0.20
2023-01-20T04:06:02.845Z,0.10
2023-01-20T04:08:37.134Z,0.10
2023-01-20T04:11:06.663Z,0.10
2023-01-20T04:13:33.536Z,0.10
2023-01-20T04:16:01.859Z,0.10
2023-01-20T04:18:28.542Z,0.00
2023-01-20T04:21:02.285Z,0.00
2023-01-20T04:23:38.526Z,0.00
2023-01-20T04:26:05.754Z,0.00
2023-01-20T04:28:32.568Z,-0.10
2023-01-20T04:30:59.383Z,0.00
2023-01-20T04:33:26.284Z,-0.10
2023-01-20T04:35:52.932Z,-0.10
2023-01-20T04:38:19.577Z,0.00
2023-01-20T04:40:46.642Z,-0.10
2023-01-20T04:43:13.738Z,-0.10
2023-01-20T04:45:41.922Z,-0.20
2023-01-20T04:48:09.216Z,-0.20
2023-01-20T04:50:42.008Z,-0.30
2023-01-20T04:53:13.497Z,-0.30
2023-01-20T04:55:55.224Z,-0.20
2023-01-20T04:58:21.902Z,-0.20
2023-01-20T05:00:48.615Z,-0.30
2023-01-20T05:03:15.411Z,-0.30
2023-01-20T05:05:42.041Z,-0.20
2023-01-20T05:08:08.767Z,-0.30
2023-01-20T05:10:35.509Z,-0.20
2023-01-20T05:13:02.221Z,-0.20
2023-01-20T05:15:28.910Z,0.00
2023-01-20T05:17:55.759Z,0.10
2023-01-20T05:20:22.473Z,0.00
2023-01-20T05:22:49.149Z,0.00
2023-01-20T05:25:16.115Z,0.00
2023-01-20T05:27:42.986Z,0.00
2023-01-20T05:30:10.405Z,-0.10
2023-01-20T05:32:37.005Z,-0.10
2023-01-20T05:35:04.263Z,0.00
2023-01-20T05:37:30.922Z,0.00
2023-01-20T05:39:57.605Z,0.00
2023-01-20T05:42:24.345Z,0.00
2023-01-20T05:44:50.987Z,0.00
2023-01-20T05:47:17.715Z,-0.10
2023-01-20T05:49:44.527Z,-0.10
2023-01-20T05:52:11.409Z,-0.10
2023-01-20T05:54:38.189Z,0.00
2023-01-20T05:57:05.755Z,0.00
2023-01-20T05:59:32.496Z,0.00
2023-01-20T06:01:59.257Z,0.00
2023-01-20T06:04:26.080Z,-0.10
2023-01-20T06:06:52.837Z,0.00
2023-01-20T06:09:19.615Z,-0.10
2023-01-20T06:11:46.336Z,-0.10
2023-01-20T06:14:13.074Z,-0.10
2023-01-20T06:16:39.786Z,-0.10
2023-01-20T06:19:06.412Z,0.00
2023-01-20T06:21:33.088Z,-0.10
2023-01-20T06:23:59.783Z,-0.20
2023-01-20T06:26:26.471Z,-0.20
2023-01-20T06:28:53.378Z,-0.20
2023-01-20T06:31:20.066Z,-0.30
2023-01-20T06:33:46.767Z,-0.30
2023-01-20T06:36:15.728Z,-0.30
2023-01-20T06:38:44.304Z,-0.30
2023-01-20T06:41:12.396Z,-0.30
2023-01-20T06:43:40.233Z,-0.30
2023-01-20T06:46:11.054Z,-0.30
2023-01-20T06:48:37.817Z,-0.30
2023-01-20T06:51:08.099Z,-0.10
2023-01-20T06:53:34.928Z,0.10
2023-01-20T06:56:02.096Z,0.30
2023-01-20T06:58:31.115Z,0.40
2023-01-20T07:01:03.455Z,0.50
2023-01-20T07:03:30.208Z,0.60
2023-01-20T07:06:01.432Z,0.70
2023-01-20T07:08:28.639Z,0.60
2023-01-20T07:10:55.872Z,0.60
2023-01-20T07:13:22.667Z,0.60
2023-01-20T07:15:49.432Z,0.60
2023-01-20T07:18:16.087Z,0.60
2023-01-20T07:20:43.882Z,0.60
2023-01-20T07:23:10.697Z,0.60
2023-01-20T07:25:40.069Z,0.60
2023-01-20T07:28:06.764Z,0.60
2023-01-20T07:30:33.563Z,0.60
2023-01-20T07:33:00.287Z,0.50
2023-01-20T07:35:27.066Z,0.50
2023-01-20T07:37:53.775Z,0.60
2023-01-20T07:40:20.671Z,0.50
2023-01-20T07:42:47.641Z,0.50
2023-01-20T07:45:14.907Z,0.50
2023-01-20T07:47:41.855Z,0.50
2023-01-20T07:50:09.204Z,0.50
2023-01-20T07:52:35.922Z,0.60
2023-01-20T07:55:02.614Z,0.60
2023-01-20T07:57:30.252Z,0.60
2023-01-20T07:59:57.051Z,0.70
2023-01-20T08:02:23.787Z,0.70
2023-01-20T08:04:50.595Z,0.60
2023-01-20T08:07:17.252Z,0.60
2023-01-20T08:09:44.062Z,0.70
2023-01-20T08:12:10.788Z,0.70
2023-01-20T08:14:37.935Z,0.60
2023-01-20T08:17:04.695Z,0.60
2023-01-20T08:19:31.369Z,0.60
2023-01-20T08:21:58.144Z,0.60
2023-01-20T08:24:24.839Z,0.50
2023-01-20T08:26:51.974Z,0.60
2023-01-20T08:29:18.772Z,0.60
2023-01-20T08:31:45.713Z,0.60
2023-01-20T08:34:12.617Z,0.60
2023-01-20T08:36:41.693Z,0.70
2023-01-20T08:39:10.224Z,0.70
2023-01-20T08:41:39.666Z,0.70
2023-01-20T08:44:07.741Z,0.80
2023-01-20T08:46:34.976Z,0.90
2023-01-20T08:49:01.805Z,0.80
2023-01-20T08:51:30.902Z,0.90
2023-01-20T08:53:58.013Z,0.90
2023-01-20T08:56:25.126Z,0.90
2023-01-20T08:58:52.143Z,0.90
2023-01-20T09:01:21.777Z,0.90
2023-01-20T09:04:03.400Z,0.90
2023-01-20T09:06:38.287Z,1.00
2023-01-20T09:09:05.216Z,1.00
2023-01-20T09:11:32.024Z,1.00
2023-01-20T09:13:58.741Z,1.00
2023-01-20T09:16:25.511Z,1.00
2023-01-20T09:18:52.207Z,1.10
2023-01-20T09:21:18.924Z,1.10
2023-01-20T09:23:47.927Z,1.10
2023-01-20T09:26:29.549Z,1.10
2023-01-20T09:29:08.856Z,1.20
2023-01-20T09:31:40.817Z,1.30
2023-01-20T09:34:08.008Z,1.20
2023-01-20T09:36:34.660Z,1.20
2023-01-20T09:39:20.233Z,1.30
2023-01-20T09:42:19.720Z,1.40
2023-01-20T09:44:56.436Z,1.40
2023-01-20T09:47:33.752Z,1.40
2023-01-20T09:50:50.135Z,1.40
2023-01-20T09:53:30.783Z,1.40
2023-01-20T09:56:09.050Z,1.50
2023-01-20T09:58:46.028Z,1.60
2023-01-20T10:01:24.375Z,1.60
2023-01-20T10:04:10.212Z,1.60
2023-01-20T10:06:41.893Z,1.70
2023-01-20T10:09:35.995Z,1.80
2023-01-20T10:12:12.831Z,1.80
2023-01-20T10:14:45.422Z,1.90
2023-01-20T10:17:42.433Z,2.00
2023-01-20T10:20:31.013Z,2.00
2023-01-20T10:23:10.356Z,2.00
2023-01-20T10:25:56.138Z,1.90
2023-01-20T10:28:28.307Z,1.90
2023-01-20T10:31:01.282Z,1.90
2023-01-20T10:33:33.147Z,1.90
2023-01-20T10:36:01.051Z,1.90
2023-01-20T10:38:52.554Z,1.90
2023-01-20T10:41:26.893Z,2.10
2023-01-20T10:43:54.138Z,2.00
2023-01-20T10:46:41.717Z,2.10
2023-01-20T10:49:52.333Z,2.30
2023-01-20T10:52:37.156Z,2.20
2023-01-20T10:55:15.397Z,2.30
2023-01-20T10:57:42.400Z,2.40
2023-01-20T11:00:23.482Z,2.30
2023-01-20T11:02:52.369Z,2.30
2023-01-20T11:05:30.467Z,2.40
2023-01-20T11:07:59.299Z,2.50
2023-01-20T11:10:29.346Z,2.50
2023-01-20T11:12:59.537Z,2.50
2023-01-20T11:16:01.478Z,2.50
2023-01-20T11:18:32.896Z,2.60
2023-01-20T11:21:08.234Z,2.60
2023-01-20T11:23:38.814Z,2.60
2023-01-20T11:26:12.526Z,2.60
2023-01-20T11:28:59.105Z,2.60
2023-01-20T11:31:43.774Z,2.60
2023-01-20T11:34:32.944Z,2.80
2023-01-20T11:37:05.788Z,2.90
2023-01-20T11:39:36.616Z,2.90
2023-01-20T11:42:11.390Z,3.00
2023-01-20T11:45:15.373Z,3.20
2023-01-20T11:47:46.193Z,3.30
2023-01-20T11:50:26.024Z,3.40
2023-01-20T11:53:19.044Z,3.30
2023-01-20T11:55:53.410Z,3.30
2023-01-20T11:58:23.093Z,3.30
2023-01-20T12:00:52.804Z,3.10
2023-01-20T12:03:33.472Z,3.20
2023-01-20T12:06:15.273Z,3.20
2023-01-20T12:08:56.725Z,3.40
2023-01-20T12:11:38.071Z,3.50
2023-01-20T12:14:22.959Z,3.40
2023-01-20T12:17:06.858Z,3.40
2023-01-20T12:19:58.937Z,3.40
2023-01-20T12:22:51.587Z,3.30
2023-01-20T12:25:31.925Z,3.50
2023-01-20T12:28:13.944Z,3.60
2023-01-20T12:31:01.365Z,3.40
2023-01-20T12:33:33.864Z,3.50
2023-01-20T12:36:16.817Z,3.50
2023-01-20T12:39:12.297Z,3.40
2023-01-20T12:42:05.939Z,3.40
2023-01-20T12:44:53.604Z,3.60
2023-01-20T12:47:32.210Z,3.70
2023-01-20T12:50:26.753Z,3.90
2023-01-20T12:53:07.357Z,3.80
2023-01-20T12:55:48.953Z,3.90
2023-01-20T12:58:18.691Z,3.80
2023-01-20T13:00:48.350Z,3.80
2023-01-20T13:03:18.161Z,3.70
2023-01-20T13:05:57.356Z,3.70
2023-01-20T13:08:36.353Z,3.70
2023-01-20T13:11:15.351Z,3.60
2023-01-20T13:14:11.963Z,3.70
2023-01-20T13:16:50.008Z,3.90
2023-01-20T13:19:30.868Z,4.00
2023-01-20T13:22:09.932Z,4.10
2023-01-20T13:24:38.533Z,4.10
2023-01-20T13:27:05.396Z,4.20
2023-01-20T13:29:42.906Z,4.20
2023-01-20T13:32:31.845Z,4.30
2023-01-20T13:34:59.986Z,4.40
2023-01-20T13:37:36.227Z,4.50
2023-01-20T13:40:05.517Z,4.60
2023-01-20T13:42:51.917Z,4.50
2023-01-20T13:45:22.569Z,4.50
2023-01-20T13:48:00.187Z,4.60
2023-01-20T13:50:37.263Z,4.70
2023-01-20T13:53:20.394Z,4.60
2023-01-20T13:55:49.775Z,4.70
2023-01-20T13:58:27.179Z,4.60
2023-01-20T14:01:05.388Z,4.50
2023-01-20T14:03:37.268Z,4.60
2023-01-20T14:06:11.300Z,4.50
2023-01-20T14:08:47.300Z,4.50
2023-01-20T14:11:20.633Z,4.50
2023-01-20T14:14:07.564Z,4.40
2023-01-20T14:16:41.761Z,4.40
2023-01-20T14:19:25.417Z,4.40
2023-01-20T14:21:59.115Z,4.30
2023-01-20T14:24:37.793Z,4.30
2023-01-20T14:27:07.632Z,4.30
2023-01-20T14:29:34.279Z,4.30
2023-01-20T14:32:01.062Z,4.20
2023-01-20T14:34:32.226Z,4.20
2023-01-20T14:37:02.985Z,4.10
2023-01-20T14:39:30.369Z,4.10
2023-01-20T14:41:59.085Z,4.10
2023-01-20T14:44:33.242Z,4.10
2023-01-20T14:47:02.671Z,4.10
2023-01-20T14:49:43.248Z,4.10
2023-01-20T14:52:27.708Z,4.00
2023-01-20T14:54:57.716Z,4.00
2023-01-20T14:57:40.322Z,3.90
2023-01-20T15:00:21.065Z,3.90
2023-01-20T15:03:28.416Z,3.90
2023-01-20T15:05:59.412Z,3.90
2023-01-20T15:08:57.011Z,3.90
2023-01-20T15:11:32.566Z,3.90
2023-01-20T15:14:02.475Z,3.90
2023-01-20T15:16:44.613Z,3.90
2023-01-20T15:19:18.219Z,3.90
2023-01-20T15:21:56.395Z,3.90
2023-01-20T15:24:24.304Z,3.90
2023-01-20T15:26:53.582Z,3.90
2023-01-20T15:29:21.778Z,3.90
2023-01-20T15:31:49.562Z,3.90
2023-01-20T15:34:16.309Z,3.90
2023-01-20T15:36:44.271Z,3.80
2023-01-20T15:39:19.095Z,3.90
2023-01-20T15:41:48.612Z,3.80
2023-01-20T15:44:15.574Z,3.80
2023-01-20T15:46:42.352Z,3.70
2023-01-20T15:49:12.530Z,3.70
2023-01-20T15:51:39.599Z,3.70
2023-01-20T15:54:09.488Z,3.70
2023-01-20T15:56:39.309Z,3.60
2023-01-20T15:59:13.768Z,3.60
2023-01-20T16:01:40.522Z,3.60
2023-01-20T16:04:07.213Z,3.60
2023-01-20T16:06:34.712Z,3.50
2023-01-20T16:09:03.769Z,3.50
2023-01-20T16:11:30.515Z,3.40
2023-01-20T16:13:57.933Z,3.40
2023-01-20T16:16:26.804Z,3.40
2023-01-20T16:18:55.496Z,3.40
2023-01-20T16:21:22.198Z,3.40
2023-01-20T16:23:49.093Z,3.30
2023-01-20T16:26:20.526Z,3.30
2023-01-20T16:28:47.175Z,3.30
2023-01-20T16:31:14.006Z,3.30
2023-01-20T16:33:40.867Z,3.20
2023-01-20T16:36:18.079Z,3.10
2023-01-20T16:38:45.701Z,3.10
2023-01-20T16:41:24.785Z,3.10
2023-01-20T16:43:53.318Z,3.00
2023-01-20T16:46:21.291Z,3.00
2023-01-20T16:48:48.104Z,3.00
2023-01-20T16:51:17.202Z,2.90
2023-01-20T16:53:44.433Z,2.90
2023-01-20T16:56:19.326Z,2.80
2023-01-20T16:58:51.197Z,2.80
2023-01-20T17:01:22.199Z,2.80
2023-01-20T17:03:50.119Z,2.80
2023-01-20T17:06:23.415Z,2.70
2023-01-20T17:08:52.581Z,2.80
2023-01-20T17:11:28.058Z,2.70
2023-01-20T17:13:55.830Z,2.70
2023-01-20T17:16:24.092Z,2.70
2023-01-20T17:18:52.522Z,2.70
2023-01-20T17:21:20.904Z,2.70
2023-01-20T17:24:02.265Z,2.70
2023-01-20T17:26:29.662Z,2.70
2023-01-20T17:28:58.130Z,2.70
2023-01-20T17:31:25.357Z,2.70
2023-01-20T17:33:52.120Z,2.70
2023-01-20T17:36:19.230Z,2.70
2023-01-20T17:38:46.130Z,2.70
2023-01-20T17:41:13.934Z,2.70
2023-01-20T17:43:48.038Z,2.70
2023-01-20T17:46:24.265Z,2.60
2023-01-20T17:48:51.419Z,2.60
2023-01-20T17:51:23.564Z,2.60
2023-01-20T17:53:51.728Z,2.60
2023-01-20T17:56:20.255Z,2.50
2023-01-20T17:58:48.128Z,2.50
2023-01-20T18:01:16.353Z,2.60
2023-01-20T18:03:44.219Z,2.60
2023-01-20T18:06:12.866Z,2.60
2023-01-20T18:08:40.231Z,2.60
2023-01-20T18:11:12.541Z,2.50
2023-01-20T18:13:39.266Z,2.50
2023-01-20T18:16:11.627Z,2.50
2023-01-20T18:18:39.617Z,2.60
2023-01-20T18:21:12.728Z,2.60
2023-01-20T18:23:40.298Z,2.60
2023-01-20T18:26:08.533Z,2.50
2023-01-20T18:28:36.151Z,2.50
2023-01-20T18:31:09.228Z,2.50
2023-01-20T18:33:44.578Z,2.50
2023-01-20T18:36:18.093Z,2.60
2023-01-20T18:38:49.987Z,2.60
2023-01-20T18:41:17.148Z,2.50
2023-01-20T18:43:43.883Z,2.50
2023-01-20T18:46:10.682Z,2.50
2023-01-20T18:48:41.500Z,2.50
2023-01-20T18:51:10.506Z,2.50
2023-01-20T18:53:37.738Z,2.50
2023-01-20T18:56:06.914Z,2.50
2023-01-20T18:58:34.538Z,2.50
2023-01-20T19:01:16.835Z,2.50
2023-01-20T19:03:46.025Z,2.50
2023-01-20T19:06:15.016Z,2.50
2023-01-20T19:08:43.214Z,2.40
2023-01-20T19:11:13.724Z,2.50
2023-01-20T19:13:41.491Z,2.50
2023-01-20T19:16:10.516Z,2.40
2023-01-20T19:18:37.558Z,2.40
2023-01-20T19:21:06.232Z,2.60
2023-01-20T19:23:33.092Z,2.70
2023-01-20T19:26:08.101Z,2.70
2023-01-20T19:28:35.244Z,2.60
2023-01-20T19:31:08.746Z,2.50
2023-01-20T19:33:36.210Z,2.40
2023-01-20T19:36:05.835Z,2.40
2023-01-20T19:38:34.353Z,2.40
2023-01-20T19:41:12.535Z,2.40
2023-01-20T19:43:39.493Z,2.40
2023-01-20T19:46:08.693Z,2.40
2023-01-20T19:48:35.689Z,2.30
2023-01-20T19:51:07.846Z,2.40
2023-01-20T19:53:34.553Z,2.40
2023-01-20T19:56:07.085Z,2.30
2023-01-20T19:58:34.680Z,2.40
2023-01-20T20:01:16.209Z,2.40
2023-01-20T20:03:43.648Z,2.40
2023-01-20T20:06:25.754Z,2.40
2023-01-20T20:08:53.872Z,2.30
2023-01-20T20:11:20.619Z,2.30
2023-01-20T20:13:47.302Z,2.30
2023-01-20T20:16:14.548Z,2.30
2023-01-20T20:18:41.268Z,2.30
2023-01-20T20:21:08.470Z,2.30
2023-01-20T20:23:35.231Z,2.30
2023-01-20T20:26:01.935Z,2.30
2023-01-20T20:28:29.245Z,2.30
2023-01-20T20:30:56.086Z,2.30
2023-01-20T20:33:24.130Z,2.20
2023-01-20T20:35:51.422Z,2.20
2023-01-20T20:38:18.748Z,2.20
2023-01-20T20:40:45.542Z,2.20
2023-01-20T20:43:12.164Z,2.20
2023-01-20T20:45:38.855Z,2.20
2023-01-20T20:48:05.785Z,2.20
2023-01-20T20:50:33.527Z,2.10
2023-01-20T20:53:00.315Z,2.10
2023-01-20T20:55:28.863Z,2.10
2023-01-20T20:57:56.181Z,2.10
2023-01-20T21:00:25.050Z,2.10
2023-01-20T21:02:51.763Z,2.10
2023-01-20T21:05:19.087Z,2.10
2023-01-20T21:07:46.013Z,2.10
2023-01-20T21:10:15.614Z,2.10
2023-01-20T21:12:43.919Z,2.10
2023-01-20T21:15:11.759Z,2.10
2023-01-20T21:17:38.858Z,2.10
2023-01-20T21:20:07.031Z,2.10
2023-01-20T21:22:34.718Z,2.10
2023-01-20T21:25:01.384Z,2.10
2023-01-20T21:27:33.224Z,2.10
2023-01-20T21:29:59.911Z,2.20
2023-01-20T21:32:26.545Z,2.10
2023-01-20T21:34:54.998Z,2.10
2023-01-20T21:37:21.616Z,2.10
2023-01-20T21:39:48.304Z,2.20
2023-01-20T21:42:15.457Z,2.10
2023-01-20T21:44:43.405Z,2.10
2023-01-20T21:47:10.764Z,2.10
2023-01-20T21:49:55.938Z,2.10
2023-01-20T21:52:42.188Z,2.10
2023-01-20T21:55:15.936Z,2.00
2023-01-20T21:57:42.761Z,2.00
2023-01-20T22:00:10.670Z,2.00
2023-01-20T22:02:37.554Z,2.00
2023-01-20T22:05:04.413Z,2.10
2023-01-20T22:07:31.061Z,2.00
2023-01-20T22:09:58.305Z,2.00
2023-01-20T22:12:25.101Z,2.00
2023-01-20T22:14:51.753Z,1.90
2023-01-20T22:17:18.655Z,1.90
2023-01-20T22:19:45.356Z,1.90
2023-01-20T22:22:14.790Z,1.90
2023-01-20T22:24:41.962Z,2.00
2023-01-20T22:27:08.756Z,2.00
2023-01-20T22:29:35.440Z,1.90
2023-01-20T22:32:03.973Z,1.90
2023-01-20T22:34:30.899Z,1.90
2023-01-20T22:37:00.391Z,2.00
2023-01-20T22:39:27.838Z,1.90
2023-01-20T22:41:54.759Z,1.90
2023-01-20T22:44:21.504Z,1.90
2023-01-20T22:46:48.201Z,1.90
2023-01-20T22:49:14.976Z,1.90
2023-01-20T22:51:41.885Z,1.90
2023-01-20T22:54:10.600Z,1.90
2023-01-20T22:56:38.920Z,1.90
2023-01-20T22:59:05.721Z,1.80
2023-01-20T23:01:35.137Z,1.80
2023-01-20T23:04:04.720Z,1.80
2023-01-20T23:06:33.662Z,1.80
2023-01-20T23:09:03.294Z,1.80
2023-01-20T23:11:30.987Z,1.70
2023-01-20T23:13:58.196Z,1.70
2023-01-20T23:16:25.002Z,1.60
2023-01-20T23:18:52.392Z,1.60
2023-01-20T23:21:20.317Z,1.60
2023-01-20T23:23:49.326Z,1.60
2023-01-20T23:26:18.321Z,1.50
2023-01-20T23:28:46.561Z,1.50
2023-01-20T23:31:20.477Z,1.50
2023-01-20T23:33:47.604Z,1.50
2023-01-20T23:36:20.886Z,1.50
2023-01-20T23:38:47.927Z,1.50
2023-01-20T23:41:15.866Z,1.40
2023-01-20T23:43:42.976Z,1.40
2023-01-20T23:46:09.789Z,1.40
2023-01-20T23:48:36.989Z,1.40
2023-01-20T23:51:04.723Z,1.40
2023-01-20T23:53:32.915Z,1.40
2023-01-20T23:56:01.838Z,1.40
2023-01-20T23:58:28.837Z,1.50
